Petrolia, California
Current Conditions -  °F | °C
As of 11:30 AM on Tuesday 21 Oct 2014 (Local Time) from KFOT Reporting Station
Clear Clear  
Wind Chill: 63°   Ceiling: Unl
Heat Index: 63°   Visibility: 10mi
Dew Point: 50°   Wind: 9mph
Humidity: 63%   Direction: 110°ESE
Pressure: 30.12"   Gusts: NA
Location:  40.33°N, 124.29°W
Report Text: KFOT 211830Z AUTO 11008KT 10SM CLR 17/10 A3012 RMK AO1
Loading
Personal Weather Stations






























Interactive Weather Map
Tropical Storm Tracking
New forecast layout! Learn more

10-Day Weather Forecast

Advertisements
Track Severe Weather on mobile